This is the latest recevied weather packets stored in our database for station/object W5MAI. If no packets are shown the sender has not sent any weather packets the latest 10 day(s).
| Time | Temp. | Humidity | Pressure | Rain* | Wind** | Luminosity | Snow |
|---|---|---|---|---|---|---|---|
| 1788388403 | 37.22° C | 37% | 1013 hPa | 0 mm | - | 429 W/m² | - |
| 1788386625 | 37.22° C | 37% | 1013.3 hPa | 0 mm | - | 534 W/m² | - |
| 1788386055 | 37.22° C | 37% | 1013.3 hPa | 0 mm | - | 564 W/m² | - |
| 1788385408 | 37.22° C | 38% | 1013.4 hPa | 0 mm | - | 594 W/m² | - |
| 1788384838 | 37.22° C | 39% | 1013.5 hPa | 0 mm | - | 626 W/m² | - |
| 1788384259 | 37.22° C | 39% | 1013.5 hPa | 0 mm | - | 640 W/m² | - |
| 1788383007 | 36.67° C | 39% | 1013.8 hPa | 0 mm | - | 714 W/m² | - |
| 1788382422 | 36.67° C | 39% | 1013.9 hPa | 0 mm | - | 733 W/m² | - |
| 1788381856 | 36.67° C | 39% | 1014.1 hPa | 0 mm | - | 759 W/m² | - |
| 1788381224 | 36.67° C | 41% | 1014.2 hPa | 0 mm | - | 777 W/m² | - |
| 1788380647 | 36.11° C | 42% | 1014.3 hPa | 0 mm | - | 795 W/m² | - |
| 1788380010 | 36.11° C | 41% | 1014.5 hPa | 0 mm | - | 812 W/m² | - |
| 1788379437 | 36.67° C | 42% | 1014.8 hPa | 0 mm | - | 837 W/m² | - |
| 1788378862 | 36.67° C | 43% | 1014.9 hPa | 0 mm | - | 846 W/m² | - |
| 1788377610 | 35.56° C | 43% | 1015.4 hPa | 0 mm | - | 881 W/m² | - |
| 1788377008 | 36.11° C | 44% | 1015.4 hPa | 0 mm | - | 895 W/m² | - |
| 1788376438 | 36.11° C | 46% | 1015.6 hPa | 0 mm | - | 919 W/m² | - |
| 1788375804 | 36.11° C | 43% | 1015.8 hPa | 0 mm | - | 916 W/m² | - |
| 1788375233 | 35.56° C | 44% | 1016 hPa | 0 mm | - | 907 W/m² | - |
| 1788374606 | 35.56° C | 45% | 1016.1 hPa | 0 mm | - | 918 W/m² | - |
| 1788374056 | 35.56° C | 45% | 1016.4 hPa | 0 mm | - | 928 W/m² | - |
| 1788373405 | 35.56° C | 46% | 1016.4 hPa | 0 mm | - | 930 W/m² | - |
| 1788372241 | 35° C | 48% | 1016.8 hPa | 0 mm | - | 909 W/m² | - |
| 1788371609 | 34.44° C | 50% | 1017 hPa | 0 mm | - | 882 W/m² | - |
| 1788371034 | 34.44° C | 50% | 1017 hPa | 0 mm | - | 870 W/m² | - |
* Rain latest hour (hover to see other rain measurements)
** Current wind speed in m/s (hover to see current wind gust speed)